Time;durP1;ratioP1;P1;durP2;ratioP2;P2;SDS_P1;SDS_P2;PMS_P1;PMS_P2;Temp;Humidity;BMP_temperature;BMP_pressure;BME280_temperature;BME280_humidity;BME280_pressure;Samples;Min_cycle;Max_cycle;Signal;HPM_P1;HPM_P2
2023/12/13 00:02:15;;;;;;;0.60;0.35;;;8.80;99.90;;;;;;5018556;28;20029;-75
2023/12/13 00:04:41;;;;;;;1.65;0.30;;;8.80;99.90;;;;;;5021785;28;20531;-75
2023/12/13 00:07:06;;;;;;;1.17;0.30;;;8.70;99.90;;;;;;5015125;28;20113;-76
2023/12/13 00:09:32;;;;;;;1.88;0.60;;;8.70;99.90;;;;;;5017219;28;20544;-76
2023/12/13 00:11:57;;;;;;;2.88;0.73;;;8.70;99.90;;;;;;5018938;28;20373;-76
2023/12/13 00:14:23;;;;;;;2.60;0.60;;;8.70;99.90;;;;;;5026195;28;20091;-76
2023/12/13 00:16:50;;;;;;;1.55;0.60;;;8.70;99.90;;;;;;5020886;28;20121;-76
2023/12/13 00:19:16;;;;;;;3.08;0.73;;;8.60;99.90;;;;;;5016984;28;20030;-76
2023/12/13 00:21:41;;;;;;;4.93;0.75;;;8.60;99.90;;;;;;5013018;28;20029;-76
2023/12/13 00:24:08;;;;;;;3.63;1.00;;;8.60;99.90;;;;;;5023119;28;20484;-76
2023/12/13 00:26:34;;;;;;;1.15;0.43;;;8.60;99.90;;;;;;5020730;28;20037;-77
2023/12/13 00:29:00;;;;;;;1.70;0.40;;;8.60;99.90;;;;;;5015834;28;20399;-76
2023/12/13 00:31:26;;;;;;;1.60;0.50;;;8.60;99.90;;;;;;5018343;28;20041;-76
2023/12/13 00:33:51;;;;;;;2.33;0.50;;;8.60;99.90;;;;;;5020437;28;20036;-76
2023/12/13 00:36:17;;;;;;;2.88;1.10;;;8.50;99.90;;;;;;5018789;28;20033;-76
2023/12/13 00:38:42;;;;;;;3.47;0.50;;;8.50;99.90;;;;;;5016140;28;20029;-76
2023/12/13 00:41:08;;;;;;;2.05;0.80;;;8.50;99.90;;;;;;5014941;28;20087;-75
2023/12/13 00:43:34;;;;;;;1.58;0.52;;;8.50;99.90;;;;;;5017304;28;20073;-76
2023/12/13 00:45:59;;;;;;;2.85;0.70;;;8.40;99.90;;;;;;5022767;28;20025;-76
2023/12/13 00:48:25;;;;;;;1.02;0.43;;;8.40;99.90;;;;;;5010135;28;21119;-76
2023/12/13 00:50:50;;;;;;;2.03;0.60;;;8.40;99.90;;;;;;5020042;28;20025;-76
2023/12/13 00:53:16;;;;;;;2.45;0.63;;;8.40;99.90;;;;;;5018390;28;20025;-76
2023/12/13 00:55:41;;;;;;;2.45;1.00;;;8.40;99.90;;;;;;5013311;28;20500;-76
2023/12/13 00:58:07;;;;;;;3.70;0.77;;;8.30;99.90;;;;;;5015090;28;20026;-76
2023/12/13 01:00:33;;;;;;;1.30;0.75;;;8.30;99.90;;;;;;5015851;28;20539;-76
2023/12/13 01:02:58;;;;;;;1.58;0.75;;;8.30;99.90;;;;;;5015580;28;20578;-76
2023/12/13 01:05:24;;;;;;;2.30;0.70;;;8.30;99.90;;;;;;5015912;28;20026;-76
2023/12/13 01:07:49;;;;;;;1.65;0.50;;;8.30;99.90;;;;;;5011858;28;20112;-76
2023/12/13 01:10:15;;;;;;;5.00;1.00;;;8.20;99.90;;;;;;5029713;28;20369;-76
2023/12/13 01:12:43;;;;;;;1.63;0.52;;;8.20;99.90;;;;;;5015432;28;20030;-77
2023/12/13 01:15:13;;;;;;;3.05;1.02;;;8.20;99.90;;;;;;5015335;28;20026;-77
2023/12/13 01:17:38;;;;;;;5.13;0.47;;;8.20;99.90;;;;;;5016856;28;20026;-77
2023/12/13 01:20:09;;;;;;;3.55;0.68;;;8.20;99.90;;;;;;5013745;28;20036;-77
2023/12/13 01:22:35;;;;;;;6.07;0.50;;;8.20;99.90;;;;;;5015283;28;20152;-78
2023/12/13 01:25:02;;;;;;;5.40;0.75;;;8.20;99.90;;;;;;5018910;28;20152;-77
2023/12/13 01:27:27;;;;;;;3.28;0.65;;;8.10;99.90;;;;;;5018754;28;20084;-77
2023/12/13 01:29:53;;;;;;;2.70;0.60;;;8.10;99.90;;;;;;5013455;28;20041;-77
2023/12/13 01:32:19;;;;;;;2.20;0.60;;;8.10;99.90;;;;;;5015620;28;20058;-77
2023/12/13 01:34:44;;;;;;;3.85;0.60;;;8.10;99.90;;;;;;5016669;28;20022;-78
2023/12/13 01:37:11;;;;;;;3.95;0.63;;;8.00;99.90;;;;;;5012428;28;20030;-78
2023/12/13 01:39:40;;;;;;;3.67;1.00;;;8.00;99.90;;;;;;5014004;28;20399;-78
2023/12/13 01:42:06;;;;;;;4.53;0.50;;;8.00;99.90;;;;;;5012463;28;20031;-78
2023/12/13 01:44:32;;;;;;;2.97;0.70;;;8.00;99.90;;;;;;5014232;28;20037;-78
2023/12/13 01:46:59;;;;;;;7.63;1.67;;;8.00;99.90;;;;;;5021765;28;20014;-78
2023/12/13 01:49:25;;;;;;;7.63;1.02;;;8.00;99.90;;;;;;5018612;28;20026;-77
2023/12/13 01:51:51;;;;;;;5.82;0.93;;;8.00;99.90;;;;;;5013613;28;20025;-77
2023/12/13 01:54:18;;;;;;;3.90;0.85;;;8.00;99.90;;;;;;5014331;28;20040;-76
2023/12/13 01:56:45;;;;;;;5.15;0.93;;;8.00;99.90;;;;;;5010012;28;20034;-77
2023/12/13 01:59:12;;;;;;;4.18;0.70;;;8.00;99.90;;;;;;5013137;28;20101;-76
2023/12/13 02:01:38;;;;;;;2.38;0.55;;;8.00;99.90;;;;;;5016461;28;20014;-77
2023/12/13 02:04:05;;;;;;;5.90;0.80;;;8.00;99.90;;;;;;5013616;28;20507;-77
2023/12/13 02:06:30;;;;;;;1.38;0.65;;;8.00;99.90;;;;;;5013052;28;20018;-75
2023/12/13 02:08:56;;;;;;;3.15;0.85;;;8.00;99.90;;;;;;5007869;28;20377;-75
2023/12/13 02:11:22;;;;;;;2.05;0.73;;;8.00;99.90;;;;;;5010362;28;20109;-76
2023/12/13 02:13:47;;;;;;;5.80;1.10;;;7.90;99.90;;;;;;5016681;28;20029;-76
2023/12/13 02:16:13;;;;;;;2.58;1.60;;;7.90;99.90;;;;;;5011967;28;20066;-75
2023/12/13 02:18:39;;;;;;;2.22;1.25;;;8.00;99.90;;;;;;5007674;28;20117;-76
2023/12/13 02:21:06;;;;;;;4.40;0.73;;;7.90;99.90;;;;;;5012500;28;20175;-76
2023/12/13 02:23:32;;;;;;;3.08;1.05;;;7.90;99.90;;;;;;5011292;28;20026;-76
2023/12/13 02:26:02;;;;;;;4.75;1.30;;;7.90;99.90;;;;;;5015468;28;20376;-76
2023/12/13 02:28:29;;;;;;;5.85;0.80;;;7.90;99.90;;;;;;5014643;28;20029;-75
2023/12/13 02:30:59;;;;;;;2.85;1.17;;;7.90;99.90;;;;;;5011046;28;20021;-76
2023/12/13 02:33:29;;;;;;;2.63;1.13;;;7.90;99.90;;;;;;5008944;28;20029;-76
2023/12/13 02:35:57;;;;;;;4.47;1.10;;;7.80;99.90;;;;;;5011042;28;20029;-76
2023/12/13 02:38:22;;;;;;;5.28;0.90;;;7.90;99.90;;;;;;5012753;28;20038;-76
2023/12/13 02:40:54;;;;;;;1.85;0.63;;;7.80;99.90;;;;;;5013585;28;20469;-76
2023/12/13 02:43:20;;;;;;;2.90;1.00;;;7.80;99.90;;;;;;5013264;28;20488;-76
2023/12/13 02:45:51;;;;;;;4.28;0.80;;;7.80;99.90;;;;;;5013858;28;20033;-76
2023/12/13 02:48:20;;;;;;;2.85;0.80;;;7.80;99.90;;;;;;5012180;28;20061;-76
2023/12/13 02:50:55;;;;;;;4.43;0.90;;;7.70;99.90;;;;;;5015475;28;20044;-76
2023/12/13 02:53:26;;;;;;;3.38;0.85;;;7.70;99.90;;;;;;5017340;28;20105;-76
2023/12/13 02:55:55;;;;;;;3.83;0.90;;;7.70;99.90;;;;;;5014992;28;20458;-76
2023/12/13 02:58:23;;;;;;;1.65;0.65;;;7.70;99.90;;;;;;5013057;28;20526;-76
2023/12/13 03:00:50;;;;;;;6.13;1.25;;;7.60;99.90;;;;;;5014149;28;20029;-76
2023/12/13 03:03:19;;;;;;;2.33;1.02;;;7.60;99.90;;;;;;5011306;28;20056;-76
2023/12/13 03:05:44;;;;;;;2.55;0.90;;;7.60;99.90;;;;;;5011173;28;20026;-76
2023/12/13 03:08:10;;;;;;;5.40;1.20;;;7.60;99.90;;;;;;5022967;28;20044;-76
2023/12/13 03:10:37;;;;;;;4.30;1.00;;;7.70;99.90;;;;;;5019220;28;20065;-76
2023/12/13 03:13:03;;;;;;;3.88;0.82;;;7.60;99.90;;;;;;5012078;28;20034;-76
2023/12/13 03:15:29;;;;;;;2.25;0.93;;;7.70;99.90;;;;;;5011065;28;20395;-76
2023/12/13 03:17:57;;;;;;;3.38;0.82;;;7.70;99.90;;;;;;5011641;28;20391;-76
2023/12/13 03:20:26;;;;;;;2.63;0.85;;;7.70;99.90;;;;;;5011602;28;20028;-76
2023/12/13 03:22:51;;;;;;;5.20;1.00;;;7.70;99.90;;;;;;5011344;28;20109;-76
2023/12/13 03:25:23;;;;;;;2.83;0.93;;;7.70;99.90;;;;;;5015632;28;20316;-75
2023/12/13 03:27:54;;;;;;;2.28;0.70;;;7.70;99.90;;;;;;5017659;28;20028;-76
2023/12/13 03:30:20;;;;;;;2.88;0.45;;;7.70;99.90;;;;;;5008920;28;20401;-76
2023/12/13 03:32:45;;;;;;;1.23;0.50;;;7.80;99.90;;;;;;5009177;28;20128;-76
2023/12/13 03:35:11;;;;;;;2.22;0.60;;;7.80;99.90;;;;;;5012008;28;20481;-76
2023/12/13 03:37:37;;;;;;;3.05;0.70;;;7.80;99.90;;;;;;5009101;28;20038;-76
2023/12/13 03:40:03;;;;;;;3.25;0.60;;;7.80;99.90;;;;;;5010168;28;20124;-76
2023/12/13 03:42:28;;;;;;;1.05;0.50;;;7.70;99.90;;;;;;5012458;28;20588;-76
2023/12/13 03:44:57;;;;;;;1.95;0.65;;;7.80;99.90;;;;;;5009795;28;20109;-76
2023/12/13 03:47:23;;;;;;;2.20;0.73;;;7.80;99.90;;;;;;5013951;28;20018;-76
2023/12/13 03:49:51;;;;;;;1.75;0.40;;;7.80;99.90;;;;;;5009379;28;20036;-76
2023/12/13 03:52:22;;;;;;;1.95;0.77;;;7.80;99.90;;;;;;5009181;28;20097;-76
2023/12/13 03:54:48;;;;;;;0.95;0.25;;;7.90;99.90;;;;;;5014400;28;20058;-76
2023/12/13 03:57:13;;;;;;;1.80;0.65;;;7.90;99.90;;;;;;4996486;28;20026;-75
2023/12/13 03:59:39;;;;;;;2.90;0.40;;;7.90;99.90;;;;;;5010762;28;20380;-75
2023/12/13 04:02:05;;;;;;;1.15;0.40;;;7.90;99.90;;;;;;5007565;28;20034;-77
2023/12/13 04:04:30;;;;;;;2.55;0.50;;;7.90;99.90;;;;;;5003860;28;20022;-77
2023/12/13 04:06:56;;;;;;;1.17;0.40;;;7.90;99.90;;;;;;5006565;28;20030;-77
2023/12/13 04:09:21;;;;;;;1.92;0.60;;;7.90;99.90;;;;;;5006502;28;20388;-77
2023/12/13 04:11:47;;;;;;;3.95;0.70;;;8.00;99.90;;;;;;5013763;28;20044;-77
2023/12/13 04:14:12;;;;;;;2.55;1.10;;;8.00;99.90;;;;;;5004937;28;20095;-77
2023/12/13 04:16:38;;;;;;;2.15;1.10;;;8.00;99.90;;;;;;5007979;28;20040;-77
2023/12/13 04:19:04;;;;;;;3.83;0.90;;;8.00;99.90;;;;;;5003435;28;20410;-78
2023/12/13 04:21:29;;;;;;;3.03;1.10;;;8.00;99.90;;;;;;4998325;28;20033;-77
2023/12/13 04:23:55;;;;;;;1.77;0.80;;;8.00;99.90;;;;;;4971147;28;1054877;-77
2023/12/13 04:26:20;;;;;;;5.60;0.63;;;8.00;99.90;;;;;;5011235;28;20026;-77
2023/12/13 04:28:46;;;;;;;2.75;0.75;;;8.10;99.90;;;;;;5016454;28;20057;-78
2023/12/13 04:31:11;;;;;;;5.07;0.90;;;8.10;99.90;;;;;;5016362;28;20034;-78
2023/12/13 04:33:37;;;;;;;2.03;0.50;;;8.10;99.90;;;;;;5014504;28;20078;-77
2023/12/13 04:36:03;;;;;;;1.45;0.50;;;8.10;99.90;;;;;;5012917;28;20038;-78
2023/12/13 04:38:29;;;;;;;2.15;0.60;;;8.10;99.90;;;;;;5012358;28;20037;-78
2023/12/13 04:40:57;;;;;;;1.50;0.90;;;8.10;99.90;;;;;;5013462;28;20458;-78
2023/12/13 04:43:23;;;;;;;2.25;0.50;;;8.10;99.90;;;;;;5014347;28;20034;-78
2023/12/13 04:45:48;;;;;;;1.98;0.50;;;8.10;99.90;;;;;;5012998;28;20026;-76
2023/12/13 04:48:14;;;;;;;1.20;0.50;;;8.10;99.90;;;;;;5008833;28;20516;-78
2023/12/13 04:50:40;;;;;;;3.25;0.70;;;8.10;99.90;;;;;;5010640;28;20022;-77
2023/12/13 04:53:05;;;;;;;2.47;1.05;;;8.10;99.90;;;;;;5013460;28;20599;-77
2023/12/13 04:55:31;;;;;;;1.05;0.63;;;8.10;99.90;;;;;;5014007;28;20030;-75
2023/12/13 04:57:56;;;;;;;3.72;0.80;;;8.20;99.90;;;;;;5016452;28;20049;-77
2023/12/13 05:00:22;;;;;;;2.25;0.60;;;8.10;99.90;;;;;;5012580;28;20033;-76
2023/12/13 05:02:47;;;;;;;2.38;0.80;;;8.20;99.90;;;;;;5015943;28;20029;-76
2023/12/13 05:05:13;;;;;;;1.35;0.68;;;8.20;99.90;;;;;;5012202;28;20026;-77
2023/12/13 05:07:39;;;;;;;2.40;0.93;;;8.20;99.90;;;;;;5017317;28;20022;-77
2023/12/13 05:10:05;;;;;;;1.70;0.70;;;8.20;99.90;;;;;;5016353;28;20029;-77
2023/12/13 05:12:31;;;;;;;2.72;0.70;;;8.20;99.90;;;;;;5009287;28;20034;-75
2023/12/13 05:14:56;;;;;;;1.67;0.63;;;8.20;99.90;;;;;;5010486;28;20080;-76
2023/12/13 05:17:22;;;;;;;1.90;0.80;;;8.20;99.90;;;;;;5010932;28;20032;-76
2023/12/13 05:19:47;;;;;;;2.92;0.80;;;8.20;99.90;;;;;;5008540;28;20025;-76
2023/12/13 05:22:16;;;;;;;2.40;0.90;;;8.20;99.90;;;;;;5010508;28;20051;-76
2023/12/13 05:24:42;;;;;;;1.60;0.70;;;8.20;99.90;;;;;;5012312;28;20031;-78
2023/12/13 05:27:07;;;;;;;1.67;0.70;;;8.20;99.90;;;;;;5019436;28;20025;-77
2023/12/13 05:29:34;;;;;;;4.78;1.13;;;8.20;99.90;;;;;;5012352;28;20026;-77
2023/12/13 05:31:59;;;;;;;1.70;0.70;;;8.20;99.90;;;;;;5014148;28;20424;-77
2023/12/13 05:34:25;;;;;;;1.65;0.50;;;8.30;99.90;;;;;;5014444;28;20027;-76
2023/12/13 05:36:50;;;;;;;1.50;0.50;;;8.30;99.90;;;;;;5015738;28;20061;-77
2023/12/13 05:39:16;;;;;;;2.20;0.47;;;8.30;99.90;;;;;;5013862;28;20049;-78
2023/12/13 05:41:42;;;;;;;2.80;0.73;;;8.30;99.90;;;;;;5016332;28;20587;-78
2023/12/13 05:44:07;;;;;;;1.90;1.00;;;8.30;99.90;;;;;;5012330;28;20032;-76
2023/12/13 05:46:33;;;;;;;3.00;0.90;;;8.30;99.90;;;;;;5013883;28;20093;-77
2023/12/13 05:49:02;;;;;;;4.28;1.05;;;8.30;99.90;;;;;;5013485;28;20416;-77
2023/12/13 05:51:27;;;;;;;4.25;1.02;;;8.40;99.90;;;;;;5016351;28;20113;-77
2023/12/13 05:53:53;;;;;;;3.92;1.25;;;8.30;99.90;;;;;;5014136;28;20440;-77
2023/12/13 05:56:18;;;;;;;6.63;1.00;;;8.30;99.90;;;;;;5013805;28;20037;-77
2023/12/13 05:58:44;;;;;;;3.42;1.00;;;8.30;99.90;;;;;;5022050;28;20117;-77
2023/12/13 06:01:09;;;;;;;2.22;0.70;;;8.30;99.90;;;;;;5021540;28;20026;-76
2023/12/13 06:03:35;;;;;;;1.27;0.60;;;8.30;99.90;;;;;;5033680;28;20030;-76
2023/12/13 06:06:01;;;;;;;2.65;0.93;;;8.30;99.90;;;;;;5016577;28;20026;-77
2023/12/13 06:08:27;;;;;;;2.15;0.60;;;8.30;99.90;;;;;;5015813;28;20014;-77
2023/12/13 06:10:52;;;;;;;1.33;0.57;;;8.30;99.90;;;;;;5024774;28;20037;-76
2023/12/13 06:13:18;;;;;;;1.20;0.63;;;8.30;99.90;;;;;;5023924;28;20030;-75
2023/12/13 06:15:44;;;;;;;2.30;0.57;;;8.30;99.90;;;;;;5014218;28;20529;-76
2023/12/13 06:18:10;;;;;;;1.90;0.88;;;8.30;99.90;;;;;;5012564;28;20029;-76
2023/12/13 06:20:36;;;;;;;2.67;0.80;;;8.20;99.90;;;;;;4998684;28;20038;-77
2023/12/13 06:23:02;;;;;;;1.48;0.70;;;8.20;99.90;;;;;;5014338;28;20117;-76
2023/12/13 06:25:28;;;;;;;2.85;0.70;;;8.20;99.90;;;;;;5014195;28;20037;-76
2023/12/13 06:27:53;;;;;;;4.35;0.80;;;8.20;99.90;;;;;;5013105;28;20025;-76
2023/12/13 06:30:19;;;;;;;3.35;0.80;;;8.20;99.90;;;;;;5017477;28;20087;-75
2023/12/13 06:32:44;;;;;;;2.92;0.90;;;8.30;99.90;;;;;;5011363;28;20038;-76
2023/12/13 06:35:12;;;;;;;2.60;0.70;;;8.30;99.90;;;;;;5013804;28;20034;-76
2023/12/13 06:37:38;;;;;;;2.03;0.60;;;8.30;99.90;;;;;;5005729;28;20025;-77
2023/12/13 06:40:04;;;;;;;2.60;0.90;;;8.20;99.90;;;;;;5010521;28;20029;-76
2023/12/13 06:42:30;;;;;;;5.15;1.52;;;8.30;99.90;;;;;;5012468;28;20045;-76
2023/12/13 06:44:55;;;;;;;4.32;1.17;;;8.20;99.90;;;;;;5024618;28;20476;-75
2023/12/13 06:47:21;;;;;;;5.05;1.23;;;8.20;99.90;;;;;;5005873;28;20046;-76
2023/12/13 06:49:46;;;;;;;4.00;1.10;;;8.20;99.90;;;;;;5013311;28;20034;-75
2023/12/13 06:52:12;;;;;;;4.22;1.17;;;8.20;99.90;;;;;;5012859;28;20069;-75
2023/12/13 06:54:38;;;;;;;3.47;1.77;;;8.20;99.90;;;;;;5017105;28;21207;-75
2023/12/13 06:57:04;;;;;;;3.95;1.83;;;8.20;99.90;;;;;;5007743;28;20033;-77
2023/12/13 06:59:30;;;;;;;3.90;1.63;;;8.20;99.90;;;;;;5006831;28;20067;-76
2023/12/13 07:01:55;;;;;;;3.67;0.90;;;8.20;99.90;;;;;;5010571;28;20480;-76
2023/12/13 07:04:21;;;;;;;3.80;0.90;;;8.20;99.90;;;;;;5007366;28;20052;-75
2023/12/13 07:06:54;;;;;;;5.32;1.05;;;8.20;99.90;;;;;;5007907;28;20537;-76
2023/12/13 07:09:19;;;;;;;4.13;1.00;;;8.20;99.90;;;;;;5009465;28;20050;-76
2023/12/13 07:11:48;;;;;;;7.05;1.38;;;8.20;99.90;;;;;;5013930;28;20060;-70
2023/12/13 07:14:14;;;;;;;11.35;2.42;;;8.20;99.90;;;;;;5002216;28;20492;-70
2023/12/13 07:16:41;;;;;;;6.80;1.83;;;8.20;99.90;;;;;;4999690;28;20072;-70
2023/12/13 07:19:06;;;;;;;3.40;0.90;;;8.10;99.90;;;;;;5004175;28;21079;-70
2023/12/13 07:21:32;;;;;;;5.85;1.20;;;8.20;99.90;;;;;;5003156;28;20026;-70
2023/12/13 07:23:58;;;;;;;5.45;1.08;;;8.20;99.90;;;;;;5008220;28;20029;-70
2023/12/13 07:26:23;;;;;;;6.93;1.58;;;8.20;99.90;;;;;;5003056;28;20017;-70
2023/12/13 07:28:49;;;;;;;3.67;1.73;;;8.20;99.90;;;;;;5004780;28;20049;-70
2023/12/13 07:31:20;;;;;;;8.40;1.90;;;8.20;99.90;;;;;;5004845;28;20018;-70
2023/12/13 07:33:46;;;;;;;6.70;1.92;;;8.20;99.90;;;;;;5019150;28;20038;-70
2023/12/13 07:36:13;;;;;;;6.78;2.05;;;8.20;99.90;;;;;;5008051;28;20026;-70
2023/12/13 07:38:41;;;;;;;4.20;2.13;;;8.20;99.90;;;;;;5004612;28;20499;-70
2023/12/13 07:41:07;;;;;;;6.18;2.63;;;8.20;99.90;;;;;;5007697;28;20022;-76
2023/12/13 07:43:33;;;;;;;6.15;2.30;;;8.20;99.90;;;;;;5018903;28;20022;-77
2023/12/13 07:45:58;;;;;;;9.93;3.15;;;8.20;99.90;;;;;;5010362;28;20030;-77
2023/12/13 07:48:24;;;;;;;6.82;2.80;;;8.20;99.90;;;;;;5009780;28;20415;-76
2023/12/13 07:50:51;;;;;;;10.32;3.53;;;8.20;99.90;;;;;;5004681;28;20108;-77
2023/12/13 07:53:17;;;;;;;11.60;3.40;;;8.30;99.90;;;;;;5010473;28;20468;-76
2023/12/13 07:55:42;;;;;;;9.43;3.13;;;8.30;99.90;;;;;;5011689;28;20058;-77
2023/12/13 07:58:08;;;;;;;9.63;3.33;;;8.20;99.90;;;;;;5012243;28;20104;-77
2023/12/13 08:00:34;;;;;;;8.40;4.28;;;8.30;99.90;;;;;;5006952;28;20035;-77
2023/12/13 08:03:00;;;;;;;11.98;3.72;;;8.30;99.90;;;;;;5010722;28;20022;-76
2023/12/13 08:05:25;;;;;;;6.20;2.25;;;8.30;99.90;;;;;;5014012;28;20028;-77
2023/12/13 08:07:51;;;;;;;6.10;2.28;;;8.30;99.90;;;;;;5012236;28;20101;-75
2023/12/13 08:10:18;;;;;;;6.88;2.65;;;8.30;99.90;;;;;;5018133;28;20029;-76
2023/12/13 08:12:49;;;;;;;6.70;2.60;;;8.30;99.90;;;;;;5013136;28;20346;-76
2023/12/13 08:15:15;;;;;;;6.35;2.60;;;8.30;99.90;;;;;;5015090;28;20041;-76
2023/12/13 08:17:49;;;;;;;8.70;2.63;;;8.30;99.90;;;;;;5018320;28;20030;-77
2023/12/13 08:20:16;;;;;;;6.03;2.10;;;8.30;99.90;;;;;;5013361;28;20121;-76
2023/12/13 08:22:41;;;;;;;8.57;2.55;;;8.30;99.90;;;;;;5012657;28;20100;-76
2023/12/13 08:25:09;;;;;;;6.10;3.10;;;8.30;99.90;;;;;;5010649;28;20113;-75
2023/12/13 08:27:34;;;;;;;5.97;2.40;;;8.30;99.90;;;;;;5014838;28;20026;-77
2023/12/13 08:30:03;;;;;;;6.53;2.20;;;8.30;99.90;;;;;;5012134;28;20056;-75
2023/12/13 08:32:29;;;;;;;7.50;2.80;;;8.30;99.90;;;;;;5014537;28;20033;-77
2023/12/13 08:34:58;;;;;;;4.55;2.33;;;8.30;99.90;;;;;;5012629;28;20025;-78
2023/12/13 08:37:23;;;;;;;6.72;2.40;;;8.30;99.90;;;;;;5016406;28;20691;-77
2023/12/13 08:39:49;;;;;;;8.32;2.17;;;8.30;99.90;;;;;;5017377;28;20047;-77
2023/12/13 08:42:15;;;;;;;8.00;2.47;;;8.30;99.90;;;;;;5013792;28;20026;-78
2023/12/13 08:44:41;;;;;;;4.28;1.58;;;8.30;99.90;;;;;;5017890;28;20022;-79
2023/12/13 08:47:08;;;;;;;4.60;2.13;;;8.30;99.90;;;;;;5015731;28;20467;-78
2023/12/13 08:49:33;;;;;;;7.80;2.15;;;8.30;99.90;;;;;;5013281;28;20083;-77
2023/12/13 08:51:59;;;;;;;7.78;2.50;;;8.30;99.90;;;;;;5017723;28;20018;-79
2023/12/13 08:54:25;;;;;;;4.97;1.92;;;8.30;99.90;;;;;;5015348;28;20449;-78
2023/12/13 08:56:50;;;;;;;5.85;2.05;;;8.30;99.90;;;;;;5014726;28;20037;-76
2023/12/13 08:59:16;;;;;;;8.30;2.40;;;8.30;99.90;;;;;;5019527;28;20038;-77
2023/12/13 09:01:42;;;;;;;6.32;1.90;;;8.30;99.90;;;;;;5017820;28;21665;-77
2023/12/13 09:04:07;;;;;;;6.20;2.20;;;8.40;99.90;;;;;;5031514;28;20536;-76
2023/12/13 09:06:33;;;;;;;6.05;2.63;;;8.30;99.90;;;;;;5012474;28;20050;-78
2023/12/13 09:08:59;;;;;;;7.30;2.50;;;8.40;99.90;;;;;;5002602;28;20032;-73
2023/12/13 09:11:24;;;;;;;5.63;2.08;;;8.40;99.90;;;;;;5008277;28;20519;-76
2023/12/13 09:13:50;;;;;;;8.18;2.75;;;8.40;99.90;;;;;;5012531;28;20037;-76
2023/12/13 09:16:16;;;;;;;6.32;2.38;;;8.40;99.90;;;;;;5016540;28;20037;-77
2023/12/13 09:18:49;;;;;;;8.00;2.85;;;8.40;99.90;;;;;;5016572;28;20057;-77
2023/12/13 09:21:14;;;;;;;6.25;3.00;;;8.40;99.90;;;;;;5010522;28;20025;-75
2023/12/13 09:23:40;;;;;;;10.65;2.95;;;8.40;99.90;;;;;;5013930;28;20453;-76
2023/12/13 09:26:06;;;;;;;8.57;2.22;;;8.40;99.90;;;;;;5018625;28;20022;-76
2023/12/13 09:28:35;;;;;;;5.00;2.22;;;8.50;99.90;;;;;;5008467;28;20104;-76
2023/12/13 09:31:02;;;;;;;7.03;1.70;;;8.50;99.90;;;;;;5013500;28;20103;-76
2023/12/13 09:33:28;;;;;;;3.95;1.98;;;8.50;99.90;;;;;;5012957;28;20022;-77
2023/12/13 09:35:54;;;;;;;5.38;1.60;;;8.50;99.90;;;;;;5014833;28;20543;-77
2023/12/13 09:38:21;;;;;;;5.38;1.73;;;8.50;99.90;;;;;;5009340;28;20017;-77
2023/12/13 09:40:48;;;;;;;4.38;1.67;;;8.60;99.90;;;;;;5006132;28;20025;-76
2023/12/13 09:43:14;;;;;;;8.75;2.50;;;8.50;99.90;;;;;;5016251;28;20025;-76
2023/12/13 09:45:40;;;;;;;5.30;1.90;;;8.60;99.90;;;;;;5013653;28;20033;-77
2023/12/13 09:48:07;;;;;;;4.05;1.15;;;8.60;99.90;;;;;;5014307;28;20026;-77
2023/12/13 09:50:34;;;;;;;4.05;1.52;;;8.60;99.90;;;;;;5009569;28;20037;-76
2023/12/13 09:53:02;;;;;;;3.72;1.20;;;8.60;99.90;;;;;;5014396;28;20049;-76
2023/12/13 09:55:29;;;;;;;3.35;1.15;;;8.70;99.90;;;;;;5016911;28;20022;-76
2023/12/13 09:57:55;;;;;;;3.53;1.55;;;8.70;99.90;;;;;;5010138;28;20034;-76
2023/12/13 10:00:23;;;;;;;2.83;1.15;;;8.80;99.90;;;;;;5042341;28;20025;-76
2023/12/13 10:02:49;;;;;;;4.38;0.90;;;8.80;99.90;;;;;;5008686;28;20083;-77
2023/12/13 10:05:17;;;;;;;3.83;0.90;;;8.80;99.90;;;;;;5005235;28;20108;-76
2023/12/13 10:07:43;;;;;;;2.05;1.00;;;8.80;99.90;;;;;;5039272;28;20029;-77
2023/12/13 10:10:09;;;;;;;2.25;0.63;;;8.80;99.90;;;;;;5014732;28;20037;-76
2023/12/13 10:12:37;;;;;;;12.90;6.22;;;8.80;99.90;;;;;;5010844;28;20037;-76
2023/12/13 10:15:10;;;;;;;2.67;1.13;;;8.80;99.90;;;;;;5009056;28;20129;-75
2023/12/13 10:17:36;;;;;;;2.58;0.70;;;8.80;99.90;;;;;;5009059;28;20053;-76
2023/12/13 10:20:02;;;;;;;3.08;0.80;;;8.80;99.90;;;;;;5013060;28;20510;-77
2023/12/13 10:22:29;;;;;;;2.63;1.17;;;8.80;99.90;;;;;;5005763;28;20376;-77
2023/12/13 10:24:56;;;;;;;3.67;1.02;;;8.80;99.90;;;;;;5008057;22;20050;-72
2023/12/13 10:27:22;;;;;;;4.90;0.77;;;8.70;99.90;;;;;;4988034;28;20033;-72
2023/12/13 10:29:56;;;;;;;0.70;0.50;;;8.70;99.90;;;;;;4987938;28;20531;-72
2023/12/13 10:32:25;;;;;;;3.22;0.70;;;8.70;99.90;;;;;;4990425;28;20026;-72
2023/12/13 10:34:50;;;;;;;1.52;0.80;;;8.70;99.90;;;;;;4977020;28;20038;-72
2023/12/13 10:37:17;;;;;;;2.92;1.10;;;8.60;99.90;;;;;;4979268;28;20030;-73
2023/12/13 10:39:47;;;;;;;2.50;1.10;;;8.60;99.90;;;;;;4984872;28;20026;-72
2023/12/13 10:42:17;;;;;;;1.77;0.90;;;8.70;99.90;;;;;;4982925;28;20811;-73
2023/12/13 10:44:49;;;;;;;1.67;0.80;;;8.70;99.90;;;;;;4981201;28;20014;-72
2023/12/13 10:47:16;;;;;;;2.25;0.80;;;8.70;99.90;;;;;;4983590;28;20049;-73
2023/12/13 10:49:43;;;;;;;4.40;1.00;;;8.80;99.90;;;;;;4988112;28;20172;-73
2023/12/13 10:52:13;;;;;;;4.47;0.65;;;8.80;99.90;;;;;;4985476;28;20366;-74
2023/12/13 10:54:40;;;;;;;2.67;1.27;;;8.90;99.90;;;;;;4984142;28;20019;-72
2023/12/13 10:57:06;;;;;;;1.33;0.77;;;8.90;99.90;;;;;;4982711;28;20038;-73
2023/12/13 10:59:33;;;;;;;1.20;0.80;;;9.00;99.90;;;;;;4984477;28;20041;-73
2023/12/13 11:01:59;;;;;;;1.45;0.80;;;9.00;99.90;;;;;;4976524;28;20142;-72
2023/12/13 11:04:24;;;;;;;1.02;0.50;;;9.00;99.90;;;;;;4972090;28;20525;-72
2023/12/13 11:06:50;;;;;;;1.20;0.60;;;9.00;99.90;;;;;;4981588;28;20035;-71
2023/12/13 11:09:17;;;;;;;3.45;0.50;;;9.00;99.90;;;;;;4983854;28;20026;-72
2023/12/13 11:11:44;;;;;;;2.85;0.75;;;9.10;99.90;;;;;;4987501;28;20083;-71
2023/12/13 11:14:17;;;;;;;3.30;0.70;;;9.10;99.90;;;;;;4984347;28;20533;-72
2023/12/13 11:16:46;;;;;;;0.80;0.55;;;9.20;99.90;;;;;;4986982;28;20500;-73
2023/12/13 11:19:15;;;;;;;1.30;0.50;;;9.20;99.90;;;;;;4986525;28;20035;-72
2023/12/13 11:21:41;;;;;;;1.70;0.60;;;9.20;99.90;;;;;;4982390;28;20033;-72
2023/12/13 11:24:23;;;;;;;2.00;0.50;;;9.30;99.90;;;;;;4984376;28;20080;-72
2023/12/13 11:26:58;;;;;;;1.75;0.40;;;9.30;99.90;;;;;;4987023;28;20026;-73
2023/12/13 11:29:32;;;;;;;1.55;0.85;;;9.40;99.90;;;;;;4985625;28;20547;-72
2023/12/13 11:32:03;;;;;;;3.05;1.42;;;9.40;99.90;;;;;;4983366;28;20030;-72
2023/12/13 11:34:31;;;;;;;4.05;0.80;;;9.40;99.90;;;;;;4983259;28;20027;-72
2023/12/13 11:37:02;;;;;;;0.95;0.40;;;9.40;99.90;;;;;;4987082;28;20062;-72
2023/12/13 11:39:32;;;;;;;1.10;0.30;;;9.40;99.90;;;;;;4990492;28;20469;-73
2023/12/13 11:42:00;;;;;;;0.88;0.40;;;9.40;99.90;;;;;;4988811;28;20504;-71
2023/12/13 11:44:30;;;;;;;1.23;0.60;;;9.40;99.90;;;;;;4990692;28;20029;-71
2023/12/13 11:46:56;;;;;;;1.67;0.68;;;9.40;99.90;;;;;;4990166;28;20034;-72
2023/12/13 11:49:23;;;;;;;2.33;0.70;;;9.40;99.90;;;;;;4988188;28;20117;-73
2023/12/13 11:51:48;;;;;;;2.05;0.50;;;9.50;99.90;;;;;;4990281;28;20030;-72
2023/12/13 11:54:14;;;;;;;2.15;0.47;;;9.50;99.90;;;;;;4990094;28;20470;-73
2023/12/13 11:56:43;;;;;;;4.05;0.70;;;9.50;99.90;;;;;;4980497;28;20053;-72
2023/12/13 11:59:09;;;;;;;2.95;0.95;;;9.60;99.90;;;;;;4986577;28;20237;-72
2023/12/13 12:01:35;;;;;;;3.45;0.90;;;9.60;99.90;;;;;;4988283;28;20532;-72
2023/12/13 12:04:01;;;;;;;1.33;0.75;;;9.60;99.90;;;;;;4988753;28;20030;-72
2023/12/13 12:06:27;;;;;;;3.53;0.63;;;9.60;99.90;;;;;;4983874;28;20026;-71
2023/12/13 12:08:53;;;;;;;1.40;0.75;;;9.60;99.90;;;;;;4984258;28;20038;-73
2023/12/13 12:11:19;;;;;;;4.35;0.90;;;9.60;99.90;;;;;;4981696;28;20033;-72
2023/12/13 12:13:45;;;;;;;1.50;0.50;;;9.70;99.90;;;;;;4984677;28;20164;-72
2023/12/13 12:16:11;;;;;;;3.60;1.00;;;9.70;99.90;;;;;;4984508;28;20105;-72
2023/12/13 12:18:38;;;;;;;3.60;0.43;;;9.60;99.90;;;;;;4984528;28;20219;-72
2023/12/13 12:21:08;;;;;;;2.08;0.73;;;9.60;99.90;;;;;;4970294;28;20065;-72
2023/12/13 12:23:38;;;;;;;2.85;0.80;;;9.60;99.90;;;;;;4964089;28;20034;-73
2023/12/13 12:26:13;;;;;;;2.40;0.50;;;9.60;99.90;;;;;;4986375;28;20065;-73
2023/12/13 12:28:57;;;;;;;1.42;0.70;;;9.60;99.90;;;;;;4986243;28;20025;-73
2023/12/13 12:31:25;;;;;;;3.13;0.80;;;9.60;99.90;;;;;;4987132;28;20062;-72
2023/12/13 12:33:58;;;;;;;4.43;0.82;;;9.60;99.90;;;;;;4990021;28;20469;-78
2023/12/13 12:36:25;;;;;;;1.92;0.60;;;9.60;99.90;;;;;;4974920;28;20412;-78
2023/12/13 12:38:51;;;;;;;2.47;0.50;;;9.60;99.90;;;;;;4987461;28;20401;-77
2023/12/13 12:41:22;;;;;;;1.17;0.47;;;9.70;99.90;;;;;;4991038;28;20022;-77
2023/12/13 12:43:49;;;;;;;1.38;0.63;;;9.70;99.90;;;;;;4983686;28;20014;-76
2023/12/13 12:46:20;;;;;;;1.20;0.60;;;9.70;99.90;;;;;;4985677;28;20022;-78
2023/12/13 12:48:54;;;;;;;3.40;1.10;;;9.70;99.90;;;;;;4986345;28;20038;-79
2023/12/13 12:51:20;;;;;;;3.80;0.90;;;9.60;99.90;;;;;;4983080;28;20322;-79
2023/12/13 12:53:46;;;;;;;3.55;1.00;;;9.70;99.90;;;;;;4978156;28;20019;-79
2023/12/13 12:56:14;;;;;;;1.13;0.50;;;9.60;99.90;;;;;;4983931;28;20445;-78